Time;durP1;ratioP1;P1;durP2;ratioP2;P2;SDS_P1;SDS_P2;PMS_P1;PMS_P2;Temp;Humidity;BMP_temperature;BMP_pressure;BME280_temperature;BME280_humidity;BME280_pressure;Samples;Min_cycle;Max_cycle;Signal;HPM_P1;HPM_P2
2021/09/19 00:00:33;;;;;;;3.60;2.40;;;9.50;99.90;9.30;96656.00;;;;5065940;28;20200;-69
2021/09/19 00:03:21;;;;;;;3.97;2.50;;;9.50;99.90;9.30;96661.00;;;;5067114;28;20698;-68
2021/09/19 00:06:12;;;;;;;2.40;2.00;;;9.50;99.90;9.30;96660.00;;;;5067863;28;20224;-68
2021/09/19 00:09:00;;;;;;;5.63;3.03;;;9.50;99.90;9.30;96661.00;;;;5066902;28;20287;-68
2021/09/19 00:11:49;;;;;;;6.20;2.07;;;9.50;99.90;9.30;96650.00;;;;5066603;28;20219;-68
2021/09/19 00:14:38;;;;;;;2.83;2.63;;;9.60;99.90;9.20;96658.00;;;;5065040;28;20200;-68
2021/09/19 00:17:27;;;;;;;4.97;2.63;;;9.60;99.90;9.10;96663.00;;;;5067697;28;20558;-68
2021/09/19 00:20:17;;;;;;;6.50;3.20;;;9.50;99.90;8.90;96667.00;;;;5066270;28;20203;-68
2021/09/19 00:23:08;;;;;;;3.67;2.50;;;9.40;99.90;9.10;96660.00;;;;5066671;28;20219;-68
2021/09/19 00:25:57;;;;;;;3.90;2.30;;;9.40;99.90;9.10;96658.00;;;;5067088;28;20224;-68
2021/09/19 00:28:46;;;;;;;4.67;2.20;;;9.40;99.90;9.10;96671.00;;;;5067574;28;20196;-69
2021/09/19 00:31:35;;;;;;;3.00;2.00;;;9.40;99.90;9.10;96660.00;;;;5065305;28;20227;-69
2021/09/19 00:34:24;;;;;;;4.57;2.43;;;9.40;99.90;9.00;96658.00;;;;5065183;28;20204;-68
2021/09/19 00:37:13;;;;;;;5.43;2.57;;;9.40;99.90;9.10;96666.00;;;;5067040;28;20216;-68
2021/09/19 00:40:04;;;;;;;3.67;2.40;;;9.40;99.90;9.00;96659.00;;;;5065571;28;20328;-68
2021/09/19 00:42:53;;;;;;;2.83;2.20;;;9.40;99.90;8.90;96656.00;;;;5066838;28;20243;-68
2021/09/19 00:45:41;;;;;;;3.00;2.70;;;9.40;99.90;8.90;96668.00;;;;5065589;28;20322;-68
2021/09/19 00:48:30;;;;;;;4.13;2.60;;;9.40;99.90;8.90;96664.00;;;;5066383;28;20255;-68
2021/09/19 00:51:19;;;;;;;3.77;2.23;;;9.30;99.90;8.70;96657.00;;;;5066456;28;20220;-67
2021/09/19 00:54:10;;;;;;;3.17;2.50;;;9.20;99.90;8.70;96667.00;;;;5065984;28;20204;-68
2021/09/19 00:57:00;;;;;;;3.07;2.77;;;9.20;99.90;8.70;96663.00;;;;5078964;28;20203;-68
2021/09/19 00:59:50;;;;;;;2.47;2.27;;;9.20;99.90;8.50;96661.00;;;;5063859;28;20196;-67
2021/09/19 01:02:40;;;;;;;2.77;2.23;;;9.10;99.90;8.40;96657.00;;;;5079387;28;20216;-68
2021/09/19 01:05:29;;;;;;;4.40;2.27;;;9.00;99.90;8.30;96660.00;;;;5065842;28;20227;-67
2021/09/19 01:08:19;;;;;;;5.37;2.27;;;8.90;99.90;8.30;96663.00;;;;5066957;28;20200;-68
2021/09/19 01:11:08;;;;;;;5.20;3.17;;;8.90;99.90;8.10;96660.00;;;;5065067;28;20212;-68
2021/09/19 01:13:59;;;;;;;8.20;2.90;;;8.80;99.90;8.10;96652.00;;;;5064954;28;20208;-69
2021/09/19 01:16:49;;;;;;;2.50;2.30;;;8.70;99.90;8.40;96648.00;;;;5065056;28;20211;-68
2021/09/19 01:19:38;;;;;;;5.40;2.63;;;8.70;99.90;8.70;96651.00;;;;5064849;28;20220;-68
2021/09/19 01:22:34;;;;;;;2.87;2.57;;;8.80;99.90;8.60;96647.00;;;;5067186;28;20220;-68
2021/09/19 01:25:24;;;;;;;4.53;2.83;;;8.80;99.90;8.50;96649.00;;;;5066174;28;20755;-68
2021/09/19 01:28:14;;;;;;;2.50;2.10;;;8.80;99.90;8.30;96647.00;;;;5065700;28;20211;-68
2021/09/19 01:31:03;;;;;;;3.53;2.53;;;8.80;99.90;8.30;96645.00;;;;5063739;28;20204;-68
2021/09/19 01:33:53;;;;;;;3.80;2.33;;;8.80;99.90;8.30;96643.00;;;;5066103;28;20206;-69
2021/09/19 01:36:42;;;;;;;4.60;2.70;;;8.80;99.90;8.10;96644.00;;;;5066418;28;20214;-69
2021/09/19 01:39:31;;;;;;;4.17;2.77;;;8.70;99.90;8.20;96637.00;;;;5064620;28;20208;-67
2021/09/19 01:42:21;;;;;;;2.97;2.73;;;8.70;99.90;8.10;96633.00;;;;5065724;28;20615;-67
2021/09/19 01:45:11;;;;;;;4.73;3.50;;;8.60;99.90;8.00;96637.00;;;;5064754;28;20200;-67
2021/09/19 01:48:01;;;;;;;3.53;2.80;;;8.60;99.90;7.70;96638.00;;;;5064928;28;20200;-69
2021/09/19 01:50:49;;;;;;;5.80;3.50;;;8.50;99.90;7.90;96642.00;;;;5069025;28;20206;-69
2021/09/19 01:53:40;;;;;;;4.43;3.20;;;8.40;99.90;7.90;96646.00;;;;5074313;28;20200;-68
2021/09/19 01:56:28;;;;;;;9.00;4.20;;;8.40;99.90;7.90;96637.00;;;;5075984;28;20392;-69
2021/09/19 01:59:19;;;;;;;3.67;3.27;;;8.40;99.90;8.00;96637.00;;;;5076661;28;20426;-68
2021/09/19 02:02:07;;;;;;;6.93;4.80;;;8.40;99.90;7.90;96625.00;;;;5089095;28;20222;-68
2021/09/19 02:04:56;;;;;;;5.30;4.00;;;8.40;99.90;8.00;96629.00;;;;5072327;28;20206;-68
2021/09/19 02:07:45;;;;;;;4.63;3.43;;;8.40;99.90;7.90;96630.00;;;;5066552;28;20693;-69
2021/09/19 02:10:34;;;;;;;3.70;3.17;;;8.40;99.90;8.10;96639.00;;;;5064088;28;20199;-68
2021/09/19 02:13:23;;;;;;;3.60;2.97;;;8.40;99.90;8.20;96639.00;;;;5064764;28;20223;-69
2021/09/19 02:16:14;;;;;;;6.83;3.33;;;8.40;99.90;8.40;96634.00;;;;5066372;28;20212;-68
2021/09/19 02:19:03;;;;;;;5.65;4.55;;;8.50;99.90;8.20;96631.00;;;;5064553;28;20871;-67
2021/09/19 02:21:52;;;;;;;4.43;3.13;;;8.60;99.90;8.10;96633.00;;;;5065955;28;20220;-69
2021/09/19 02:24:41;;;;;;;5.10;3.00;;;8.50;99.90;8.20;96633.00;;;;5065045;28;20215;-68
2021/09/19 02:27:30;;;;;;;3.23;2.93;;;8.50;99.90;8.30;96633.00;;;;5067213;28;20227;-67
2021/09/19 02:30:19;;;;;;;3.40;2.73;;;8.60;99.90;8.00;96627.00;;;;5064071;28;20277;-69
2021/09/19 02:33:10;;;;;;;6.90;2.20;;;8.50;99.90;7.70;96622.00;;;;5065280;28;20220;-69
2021/09/19 02:35:58;;;;;;;2.83;2.50;;;8.40;99.90;7.90;96619.00;;;;5064832;28;20200;-69
2021/09/19 02:38:47;;;;;;;3.80;2.57;;;8.40;99.90;8.00;96612.00;;;;5064468;28;20208;-67
2021/09/19 02:41:36;;;;;;;3.70;3.17;;;8.40;99.90;8.10;96615.00;;;;5064585;28;20223;-69
2021/09/19 02:44:25;;;;;;;5.80;2.80;;;8.40;99.90;7.70;96623.00;;;;5065398;28;20200;-67
2021/09/19 02:47:14;;;;;;;3.43;3.13;;;8.40;99.90;7.70;96610.00;;;;5065383;28;20223;-69
2021/09/19 02:50:06;;;;;;;3.70;2.90;;;8.30;99.90;7.70;96605.00;;;;5076616;28;20223;-67
2021/09/19 02:52:55;;;;;;;3.00;2.70;;;8.30;99.90;7.80;96604.00;;;;5064176;28;20216;-67
2021/09/19 02:55:43;;;;;;;3.07;2.77;;;8.20;99.90;7.90;96594.00;;;;5067696;28;20203;-69
2021/09/19 02:58:34;;;;;;;3.20;2.90;;;8.30;99.90;7.90;96603.00;;;;5076415;28;20204;-70
2021/09/19 03:01:23;;;;;;;2.83;2.63;;;8.30;99.90;7.90;96597.00;;;;5069247;28;20227;-69
2021/09/19 03:04:12;;;;;;;3.80;3.40;;;8.30;99.90;8.00;96593.00;;;;5067741;28;20754;-69
2021/09/19 03:07:02;;;;;;;3.80;3.20;;;8.30;99.90;8.00;96591.00;;;;5068766;28;20231;-68
2021/09/19 03:09:51;;;;;;;3.40;3.10;;;8.30;99.90;8.00;96591.00;;;;5067395;28;20211;-69
2021/09/19 03:12:41;;;;;;;3.30;2.93;;;8.30;99.90;7.90;96588.00;;;;5069396;28;20238;-69
2021/09/19 03:15:30;;;;;;;4.47;2.37;;;8.30;99.90;7.80;96581.00;;;;5067078;28;20208;-69
2021/09/19 03:18:19;;;;;;;3.47;3.17;;;8.30;99.90;7.70;96582.00;;;;5068688;28;20207;-69
2021/09/19 03:21:07;;;;;;;2.80;2.53;;;8.30;99.90;8.00;96586.00;;;;5067538;28;20203;-69
2021/09/19 03:23:58;;;;;;;3.53;3.23;;;8.30;99.90;8.10;96586.00;;;;5068574;28;20199;-68
2021/09/19 03:26:47;;;;;;;3.27;2.97;;;8.30;99.90;8.20;96574.00;;;;5067918;28;20224;-69
2021/09/19 03:29:36;;;;;;;3.30;2.60;;;8.30;99.90;8.20;96568.00;;;;5067833;28;20208;-68
2021/09/19 03:32:25;;;;;;;4.27;3.77;;;8.40;99.90;8.00;96562.00;;;;5067707;28;20425;-68
2021/09/19 03:35:14;;;;;;;4.10;2.77;;;8.40;99.90;7.90;96563.00;;;;5067677;28;20200;-69
2021/09/19 03:38:04;;;;;;;3.23;2.83;;;8.30;99.90;8.10;96562.00;;;;5068854;28;20226;-68
2021/09/19 03:40:54;;;;;;;3.43;3.13;;;8.30;99.90;8.20;96562.00;;;;5066912;28;20211;-68
2021/09/19 03:43:43;;;;;;;4.13;2.63;;;8.40;99.90;8.20;96562.00;;;;5067259;28;20686;-67
2021/09/19 03:46:32;;;;;;;2.73;2.53;;;8.40;99.90;8.00;96559.00;;;;5067430;28;20675;-68
2021/09/19 03:49:21;;;;;;;3.50;3.13;;;8.40;99.90;8.00;96553.00;;;;5072003;28;20200;-68
2021/09/19 03:52:10;;;;;;;6.27;3.90;;;8.40;99.90;7.80;96556.00;;;;5067963;28;20243;-68
2021/09/19 03:54:58;;;;;;;6.30;4.13;;;8.30;99.90;7.60;96560.00;;;;5067875;28;20204;-68
2021/09/19 03:57:49;;;;;;;5.97;4.43;;;8.30;99.90;7.60;96566.00;;;;5081870;28;20204;-68
2021/09/19 04:00:38;;;;;;;3.90;3.47;;;8.20;99.90;7.50;96572.00;;;;5067320;28;20287;-68
2021/09/19 04:03:28;;;;;;;3.10;2.80;;;8.10;99.90;7.60;96567.00;;;;5068140;28;20230;-68
2021/09/19 04:06:17;;;;;;;8.30;3.60;;;8.10;99.90;7.80;96569.00;;;;5067369;28;20196;-68
2021/09/19 04:09:06;;;;;;;5.00;3.67;;;8.10;99.90;7.90;96574.00;;;;5066235;28;20211;-68
2021/09/19 04:11:56;;;;;;;3.47;3.17;;;9.10;99.90;7.90;96562.00;;;;5066033;28;20246;-69
2021/09/19 04:14:46;;;;;;;3.57;3.23;;;8.20;99.90;7.90;96570.00;;;;5066378;28;20207;-69
2021/09/19 04:17:35;;;;;;;9.67;4.33;;;8.20;99.90;8.10;96569.00;;;;5068446;28;20671;-68
2021/09/19 04:20:24;;;;;;;6.83;3.50;;;8.20;99.90;8.10;96567.00;;;;5066101;28;20203;-69
2021/09/19 04:23:13;;;;;;;3.30;2.90;;;8.30;99.90;8.10;96575.00;;;;5067794;28;20769;-68
2021/09/19 04:26:02;;;;;;;4.73;3.37;;;8.40;99.90;8.20;96573.00;;;;5067449;28;20475;-69
2021/09/19 04:28:52;;;;;;;4.10;3.50;;;8.40;99.90;8.10;96570.00;;;;5066291;28;20238;-68
2021/09/19 04:31:42;;;;;;;3.47;3.13;;;8.40;99.90;8.10;96577.00;;;;5066460;28;20223;-69
2021/09/19 04:34:31;;;;;;;3.90;3.53;;;8.40;99.90;7.80;96570.00;;;;5066784;28;20211;-67
2021/09/19 04:37:19;;;;;;;3.87;3.30;;;8.40;99.90;7.70;96574.00;;;;5066828;28;20212;-68
2021/09/19 04:40:10;;;;;;;3.43;3.13;;;8.30;99.90;7.30;96571.00;;;;5067146;28;20200;-69
2021/09/19 04:42:59;;;;;;;7.43;3.60;;;8.20;99.90;7.40;96578.00;;;;5066724;28;20223;-68
2021/09/19 04:45:48;;;;;;;6.40;3.83;;;8.10;99.90;7.60;96565.00;;;;5067622;28;20211;-68
2021/09/19 04:48:38;;;;;;;3.33;3.03;;;8.00;99.90;7.60;96566.00;;;;5066677;28;20220;-69
2021/09/19 04:51:27;;;;;;;3.33;3.03;;;8.00;99.90;7.60;96579.00;;;;5070902;28;20223;-69
2021/09/19 04:54:15;;;;;;;3.90;3.50;;;8.10;99.90;7.80;96579.00;;;;5085282;28;20191;-69
2021/09/19 04:57:04;;;;;;;3.03;2.77;;;8.10;99.90;8.00;96583.00;;;;5085561;28;20207;-69
2021/09/19 04:59:53;;;;;;;3.67;3.33;;;8.20;99.90;7.80;96581.00;;;;5064989;28;20466;-69
2021/09/19 05:02:42;;;;;;;3.40;3.10;;;8.30;99.90;7.90;96576.00;;;;5078721;28;20223;-69
2021/09/19 05:05:32;;;;;;;4.37;3.00;;;8.30;99.90;7.80;96575.00;;;;5080864;28;20196;-69
2021/09/19 05:08:21;;;;;;;3.37;3.07;;;8.20;99.90;7.70;96574.00;;;;5074408;28;20598;-67
2021/09/19 05:11:10;;;;;;;5.33;3.40;;;8.20;99.90;7.60;96582.00;;;;5066413;28;20200;-69
2021/09/19 05:13:59;;;;;;;4.00;3.60;;;8.10;99.90;7.60;96579.00;;;;5064930;28;20203;-68
2021/09/19 05:16:48;;;;;;;3.90;3.50;;;8.10;99.90;7.50;96574.00;;;;5067290;28;20778;-69
2021/09/19 05:19:37;;;;;;;3.80;3.43;;;8.10;99.90;7.70;96585.00;;;;5063694;28;20212;-69
2021/09/19 05:22:27;;;;;;;3.53;3.23;;;8.10;99.90;7.80;96582.00;;;;5065930;28;20216;-68
2021/09/19 05:25:16;;;;;;;3.47;3.10;;;8.10;99.90;8.00;96585.00;;;;5065857;28;20207;-68
2021/09/19 05:28:05;;;;;;;5.60;3.63;;;8.20;99.90;8.00;96574.00;;;;5066056;28;20231;-68
2021/09/19 05:30:54;;;;;;;6.23;3.57;;;8.30;99.90;8.00;96586.00;;;;5065103;28;20199;-69
2021/09/19 05:33:44;;;;;;;4.40;3.73;;;8.30;99.90;7.90;96591.00;;;;5065634;28;20200;-68
2021/09/19 05:36:33;;;;;;;3.43;3.13;;;8.30;99.90;7.90;96583.00;;;;5067374;28;20215;-69
2021/09/19 05:39:23;;;;;;;4.47;3.17;;;8.30;99.90;7.90;96589.00;;;;5064283;28;20196;-69
2021/09/19 05:42:12;;;;;;;4.37;3.73;;;8.30;99.90;8.00;96582.00;;;;5065950;28;20224;-67
2021/09/19 05:45:02;;;;;;;4.33;3.93;;;8.30;99.90;8.20;96581.00;;;;5065700;28;20204;-69
2021/09/19 05:47:51;;;;;;;6.57;3.43;;;8.40;99.90;8.20;96577.00;;;;5065723;28;20231;-68
2021/09/19 05:50:39;;;;;;;5.00;3.80;;;8.50;99.90;8.10;96583.00;;;;5070366;28;20200;-69
2021/09/19 05:53:28;;;;;;;8.17;4.13;;;8.50;99.90;8.30;96576.00;;;;5065619;28;20207;-70
2021/09/19 05:56:18;;;;;;;3.70;3.20;;;8.50;99.90;8.40;96581.00;;;;5073017;28;20210;-70
2021/09/19 05:59:07;;;;;;;3.50;3.17;;;8.60;99.90;8.40;96587.00;;;;5067742;28;20215;-69
2021/09/19 06:01:56;;;;;;;4.77;3.60;;;8.70;99.90;8.30;96584.00;;;;5065098;28;20714;-68
2021/09/19 06:04:45;;;;;;;3.73;3.07;;;8.70;99.90;8.40;96575.00;;;;5065636;28;20283;-69
2021/09/19 06:07:34;;;;;;;3.50;3.20;;;8.70;99.90;8.50;96578.00;;;;5078640;28;20198;-68
2021/09/19 06:10:23;;;;;;;3.60;3.10;;;8.80;99.90;8.60;96585.00;;;;5064940;28;20281;-70
2021/09/19 06:13:13;;;;;;;3.20;2.90;;;8.80;99.90;8.60;96584.00;;;;5066988;28;20216;-69
2021/09/19 06:16:02;;;;;;;4.70;3.33;;;8.90;99.90;8.90;96576.00;;;;5065661;28;20211;-69
2021/09/19 06:18:50;;;;;;;4.00;3.33;;;9.00;99.90;9.20;96570.00;;;;5064148;28;20199;-68
2021/09/19 06:21:39;;;;;;;5.23;4.10;;;9.20;99.90;9.40;96574.00;;;;5064150;28;20223;-68
2021/09/19 06:24:29;;;;;;;4.47;3.27;;;9.30;99.90;9.60;96569.00;;;;5064615;28;20211;-69
2021/09/19 06:27:18;;;;;;;4.60;3.27;;;9.50;99.90;9.50;96564.00;;;;5065564;28;20212;-69
2021/09/19 06:30:11;;;;;;;6.17;4.30;;;9.60;99.90;9.70;96566.00;;;;5063987;28;20234;-68
2021/09/19 06:33:00;;;;;;;3.97;3.40;;;9.70;99.90;9.70;96573.00;;;;5069502;28;20230;-67
2021/09/19 06:35:49;;;;;;;2.93;2.70;;;9.90;99.90;9.80;96570.00;;;;5070218;28;20204;-67
2021/09/19 06:38:38;;;;;;;5.50;4.27;;;10.00;99.90;9.90;96572.00;;;;5068916;28;20220;-69
2021/09/19 06:41:27;;;;;;;5.83;3.60;;;10.10;99.90;10.10;96566.00;;;;5068653;28;20215;-68
2021/09/19 06:44:16;;;;;;;2.90;2.70;;;10.20;99.90;10.40;96558.00;;;;5069467;28;20200;-67
2021/09/19 06:47:06;;;;;;;5.00;3.23;;;10.30;99.90;10.60;96556.00;;;;5068640;28;20203;-68
2021/09/19 06:49:54;;;;;;;5.73;3.17;;;10.50;99.90;10.90;96550.00;;;;5083426;28;20702;-69
2021/09/19 06:52:43;;;;;;;2.97;2.67;;;10.70;99.90;11.00;96553.00;;;;5069228;28;20227;-69
2021/09/19 06:55:32;;;;;;;4.13;2.63;;;10.90;99.90;11.10;96560.00;;;;5069023;28;20202;-68
2021/09/19 06:58:21;;;;;;;5.23;3.20;;;11.00;99.90;11.40;96556.00;;;;5078369;28;20214;-69
2021/09/19 07:01:10;;;;;;;4.07;3.67;;;11.20;99.90;11.60;96555.00;;;;5081872;28;20211;-68
2021/09/19 07:04:00;;;;;;;3.77;2.77;;;11.40;99.90;11.70;96550.00;;;;5068013;28;20927;-69
2021/09/19 07:06:49;;;;;;;4.63;3.00;;;11.50;99.90;11.90;96553.00;;;;5086594;28;20264;-69
2021/09/19 07:09:38;;;;;;;3.00;2.60;;;11.70;99.90;12.10;96554.00;;;;5080484;28;20231;-68
2021/09/19 07:12:27;;;;;;;4.63;2.50;;;11.90;99.90;12.30;96553.00;;;;5082021;28;20219;-70
2021/09/19 07:15:16;;;;;;;8.57;3.10;;;12.10;99.90;12.70;96562.00;;;;5075673;28;20210;-68
2021/09/19 07:18:05;;;;;;;4.90;2.87;;;12.30;99.90;12.90;96565.00;;;;5072614;28;20195;-68
2021/09/19 07:20:55;;;;;;;3.90;2.80;;;12.60;99.90;13.20;96574.00;;;;5079663;28;20212;-68
2021/09/19 07:23:44;;;;;;;3.33;2.77;;;12.80;99.90;13.40;96580.00;;;;5068930;28;20203;-68
2021/09/19 07:26:33;;;;;;;2.90;2.70;;;13.00;99.90;13.40;96578.00;;;;5086652;28;20211;-69
2021/09/19 07:29:22;;;;;;;6.33;3.00;;;13.30;99.90;13.60;96567.00;;;;5087603;28;20412;-69
2021/09/19 07:32:13;;;;;;;3.47;2.67;;;13.30;99.90;13.90;96568.00;;;;5071033;28;20733;-68
2021/09/19 07:35:04;;;;;;;3.17;2.30;;;13.40;99.90;14.00;96573.00;;;;5086049;28;20203;-69
2021/09/19 07:37:55;;;;;;;3.37;2.67;;;13.60;99.90;14.10;96587.00;;;;5076651;28;20219;-69
2021/09/19 07:40:45;;;;;;;3.03;2.77;;;13.70;99.90;14.30;96598.00;;;;5085132;28;20211;-69
2021/09/19 07:43:36;;;;;;;3.37;3.07;;;13.80;99.90;14.30;96590.00;;;;5088845;28;20204;-68
2021/09/19 07:46:25;;;;;;;4.57;3.23;;;14.00;99.90;14.40;96588.00;;;;5084779;28;20212;-68
2021/09/19 07:49:15;;;;;;;3.80;2.40;;;14.10;99.90;14.70;96597.00;;;;5076245;28;20222;-68
2021/09/19 07:52:05;;;;;;;3.73;2.53;;;14.20;99.90;14.50;96599.00;;;;5076489;28;20235;-68
2021/09/19 07:54:55;;;;;;;2.57;2.37;;;14.30;99.90;14.40;96597.00;;;;5083233;28;20602;-68
2021/09/19 07:57:44;;;;;;;3.67;2.93;;;14.30;99.90;14.70;96585.00;;;;5087049;28;20207;-68
2021/09/19 08:00:33;;;;;;;6.00;2.77;;;14.40;99.90;15.10;96589.00;;;;5080034;28;20226;-68
2021/09/19 08:03:22;;;;;;;2.73;2.43;;;14.50;99.90;15.40;96585.00;;;;5076849;28;20227;-68
2021/09/19 08:06:11;;;;;;;4.67;2.60;;;14.80;99.90;15.50;96597.00;;;;5068943;28;20275;-67
2021/09/19 08:09:00;;;;;;;3.30;2.10;;;15.00;99.90;15.60;96593.00;;;;5079419;28;20717;-67
2021/09/19 08:11:52;;;;;;;3.60;2.57;;;15.10;99.90;15.70;96591.00;;;;5080169;28;20290;-68
2021/09/19 08:14:41;;;;;;;2.57;2.17;;;15.30;99.90;15.80;96570.00;;;;5075488;28;20211;-68
2021/09/19 08:17:30;;;;;;;3.17;2.13;;;15.40;99.90;16.10;96575.00;;;;5081178;28;20206;-68
2021/09/19 08:20:19;;;;;;;2.40;2.17;;;15.60;99.90;16.30;96585.00;;;;5080655;28;20200;-68
2021/09/19 08:23:08;;;;;;;2.13;1.93;;;15.80;99.90;16.50;96576.00;;;;5092119;28;20237;-68
2021/09/19 08:25:57;;;;;;;6.47;2.20;;;16.00;99.90;16.70;96581.00;;;;5089098;28;20204;-68
2021/09/19 08:28:47;;;;;;;3.27;2.80;;;16.20;99.90;16.40;96577.00;;;;5067437;28;20231;-67
2021/09/19 08:31:37;;;;;;;3.27;2.80;;;16.30;99.90;16.60;96577.00;;;;5063793;28;20216;-68
2021/09/19 08:34:26;;;;;;;7.50;2.70;;;16.30;99.90;17.00;96567.00;;;;5067998;28;20568;-68
2021/09/19 08:37:15;;;;;;;2.33;2.10;;;16.50;99.90;17.40;96567.00;;;;5067802;28;20208;-68
2021/09/19 08:40:08;;;;;;;2.50;2.30;;;16.70;99.90;17.40;96567.00;;;;5082843;28;20207;-68
2021/09/19 08:42:57;;;;;;;2.77;2.57;;;16.90;99.90;17.20;96566.00;;;;5084456;28;20236;-67
2021/09/19 08:45:50;;;;;;;3.43;3.13;;;17.00;99.90;17.30;96567.00;;;;5068281;28;20745;-69
2021/09/19 08:48:40;;;;;;;4.60;4.00;;;17.10;99.90;17.50;96567.00;;;;5064005;28;20241;-68
2021/09/19 08:51:29;;;;;;;5.33;3.00;;;17.20;99.90;17.10;96554.00;;;;5076245;28;20236;-68
2021/09/19 08:54:19;;;;;;;3.67;2.60;;;17.20;99.90;16.90;96548.00;;;;5064834;28;20671;-68
2021/09/19 08:57:08;;;;;;;3.17;2.87;;;17.20;99.90;17.40;96563.00;;;;5080825;28;20218;-68
2021/09/19 09:00:05;;;;;;;2.57;2.37;;;17.00;99.90;18.00;96559.00;;;;5066448;28;20210;-69
2021/09/19 09:02:56;;;;;;;3.60;3.23;;;17.30;99.90;18.10;96554.00;;;;5066670;28;20223;-68
2021/09/19 09:05:45;;;;;;;4.63;2.53;;;17.60;99.90;18.30;96544.00;;;;5066184;28;20204;-68
2021/09/19 09:08:35;;;;;;;5.53;2.83;;;17.70;99.90;18.20;96548.00;;;;5067323;28;20208;-68
2021/09/19 09:11:29;;;;;;;3.20;2.37;;;17.90;99.90;18.20;96540.00;;;;5073882;28;20285;-68
2021/09/19 09:14:22;;;;;;;3.20;2.93;;;18.00;99.90;18.00;96540.00;;;;5076281;28;20196;-68
2021/09/19 09:17:15;;;;;;;4.00;2.13;;;18.10;99.90;18.40;96535.00;;;;5097699;28;20614;-68
2021/09/19 09:20:06;;;;;;;3.37;3.07;;;18.10;99.90;18.50;96535.00;;;;5067715;28;20666;-68
2021/09/19 09:22:55;;;;;;;3.57;3.27;;;18.20;99.90;19.20;96529.00;;;;5066156;28;20634;-68
2021/09/19 09:25:44;;;;;;;2.93;2.63;;;18.40;99.90;19.40;96535.00;;;;5066768;28;20287;-68
2021/09/19 09:28:45;;;;;;;5.37;2.60;;;18.70;99.90;19.70;96530.00;;;;5066994;28;20582;-68
2021/09/19 09:31:38;;;;;;;4.37;2.63;;;19.00;99.90;20.00;96524.00;;;;5065554;28;20238;-68
2021/09/19 09:34:27;;;;;;;6.63;3.40;;;19.30;99.90;20.40;96528.00;;;;5065021;28;20219;-68
2021/09/19 09:37:20;;;;;;;6.50;2.93;;;19.60;99.90;20.80;96528.00;;;;5071909;28;20214;-67
2021/09/19 09:40:18;;;;;;;2.60;2.40;;;19.80;99.90;20.90;96524.00;;;;5096875;28;20202;-69
2021/09/19 09:43:10;;;;;;;2.70;2.50;;;20.10;99.90;21.00;96523.00;;;;5065720;28;20224;-68
2021/09/19 09:46:11;;;;;;;3.67;2.70;;;20.40;99.90;20.80;96534.00;;;;5073090;28;20214;-68
2021/09/19 09:49:00;;;;;;;2.80;2.57;;;20.40;99.90;20.70;96509.00;;;;5065096;28;20772;-69
2021/09/19 09:51:49;;;;;;;2.83;2.50;;;20.40;99.90;21.20;96509.00;;;;5098563;28;20619;-69
2021/09/19 09:54:52;;;;;;;2.70;2.50;;;20.50;99.90;21.40;96513.00;;;;5085338;28;20195;-68
2021/09/19 09:58:09;;;;;;;3.17;2.03;;;20.70;99.90;21.90;96497.00;;;;5081363;28;20215;-67
2021/09/19 10:00:58;;;;;;;2.70;2.50;;;21.00;99.90;21.80;96504.00;;;;5030308;28;20675;-68
2021/09/19 10:03:48;;;;;;;2.37;2.17;;;21.20;99.90;22.30;96502.00;;;;5065560;28;20226;-67
2021/09/19 10:06:38;;;;;;;2.40;2.20;;;21.40;99.90;22.40;96490.00;;;;5065684;28;20204;-67
2021/09/19 10:09:27;;;;;;;2.70;2.50;;;21.50;99.90;22.40;96491.00;;;;5065651;28;20563;-68
2021/09/19 10:12:20;;;;;;;5.40;3.23;;;21.70;99.90;22.50;96492.00;;;;5067689;28;20787;-68
2021/09/19 10:15:10;;;;;;;2.27;2.13;;;21.90;99.90;22.00;96502.00;;;;5085371;28;20203;-68
2021/09/19 10:17:59;;;;;;;2.80;2.60;;;21.90;99.90;22.70;96489.00;;;;5071682;28;20557;-69
2021/09/19 10:20:50;;;;;;;2.80;2.60;;;22.00;99.90;22.90;96485.00;;;;5063547;28;20204;-68
2021/09/19 10:23:41;;;;;;;2.83;2.60;;;22.20;99.90;22.70;96479.00;;;;5066226;28;20714;-68
2021/09/19 10:26:30;;;;;;;4.00;2.03;;;22.30;99.40;23.00;96489.00;;;;5065517;28;20207;-68
2021/09/19 10:29:23;;;;;;;2.60;2.40;;;22.50;98.80;21.40;96475.00;;;;5065243;28;20691;-68
2021/09/19 10:32:33;;;;;;;2.77;2.40;;;22.30;95.90;21.80;96475.00;;;;5064894;28;20228;-68
2021/09/19 10:35:30;;;;;;;3.10;2.80;;;22.10;96.30;22.40;96477.00;;;;5065116;28;20207;-68
2021/09/19 10:38:36;;;;;;;3.53;2.50;;;22.00;95.80;23.70;96487.00;;;;5065882;28;20809;-67
2021/09/19 10:41:25;;;;;;;3.77;2.10;;;22.30;98.60;23.90;96478.00;;;;5065527;28;20226;-68
2021/09/19 10:44:14;;;;;;;2.10;1.90;;;22.80;96.40;24.90;96474.00;;;;5065087;28;20207;-68
2021/09/19 10:47:07;;;;;;;1.60;1.50;;;23.30;96.80;25.20;96502.00;;;;5075699;28;20207;-68
2021/09/19 10:50:22;;;;;;;1.90;1.80;;;23.80;95.80;23.90;96509.00;;;;5078828;28;20206;-68
2021/09/19 10:53:27;;;;;;;4.30;2.20;;;24.00;92.40;24.20;96499.00;;;;5076585;28;20502;-68
2021/09/19 10:56:16;;;;;;;2.63;2.43;;;23.90;92.00;23.50;96503.00;;;;5073024;28;20586;-67
2021/09/19 10:59:05;;;;;;;2.43;2.27;;;23.70;91.20;23.20;96487.00;;;;5068421;28;20562;-68
2021/09/19 11:01:54;;;;;;;2.07;1.93;;;23.50;90.00;22.00;96487.00;;;;5066050;28;20234;-67
2021/09/19 11:04:44;;;;;;;3.07;2.77;;;22.90;90.00;20.70;96493.00;;;;5064045;28;20721;-68
2021/09/19 11:07:34;;;;;;;2.77;2.57;;;22.50;90.40;20.50;96485.00;;;;5075768;28;20208;-68
2021/09/19 11:10:23;;;;;;;3.77;2.30;;;21.90;91.20;21.90;96476.00;;;;5064728;28;20247;-68
2021/09/19 11:13:21;;;;;;;5.10;2.90;;;21.80;92.50;22.60;96438.00;;;;5065890;28;20227;-68
2021/09/19 11:16:38;;;;;;;2.63;2.43;;;22.10;93.00;23.30;96452.00;;;;5065716;28;20613;-68
2021/09/19 11:19:27;;;;;;;3.03;2.53;;;22.40;93.50;23.30;96470.00;;;;5062634;28;20588;-68
2021/09/19 11:22:24;;;;;;;2.57;2.37;;;22.70;93.50;23.10;96485.00;;;;5101587;28;20242;-67
2021/09/19 11:25:17;;;;;;;6.60;3.13;;;22.80;89.80;23.90;96472.00;;;;5073522;28;20588;-68
2021/09/19 11:28:06;;;;;;;2.20;2.00;;;22.90;90.60;23.10;96476.00;;;;5068118;28;20572;-67
2021/09/19 11:30:58;;;;;;;5.33;2.57;;;22.80;90.90;22.80;96484.00;;;;5067645;28;20229;-68
2021/09/19 11:33:47;;;;;;;3.33;2.50;;;22.70;91.00;23.40;96416.00;;;;5068498;28;20206;-68
2021/09/19 11:36:42;;;;;;;2.57;2.37;;;22.70;92.10;25.20;96408.00;;;;5068744;28;20684;-68
2021/09/19 11:39:37;;;;;;;2.20;1.93;;;23.30;92.70;25.60;96456.00;;;;5072522;28;20230;-68
2021/09/19 11:42:28;;;;;;;2.30;2.10;;;23.90;92.60;25.50;96427.00;;;;5070114;28;20712;-68
2021/09/19 11:45:17;;;;;;;2.07;1.87;;;24.60;89.40;23.80;96474.00;;;;5076218;28;20579;-68
2021/09/19 11:48:08;;;;;;;4.60;2.37;;;24.60;84.10;22.10;96465.00;;;;5093232;28;20198;-68
2021/09/19 11:50:56;;;;;;;2.43;2.23;;;24.00;82.20;22.50;96463.00;;;;5087705;28;20234;-68
2021/09/19 11:53:48;;;;;;;2.60;1.90;;;23.40;85.60;21.90;96464.00;;;;5091536;28;20196;-68
2021/09/19 11:56:44;;;;;;;3.50;2.53;;;22.90;88.20;21.80;96462.00;;;;5087259;28;20204;-68
2021/09/19 11:59:33;;;;;;;2.87;2.00;;;22.30;88.60;22.20;96449.00;;;;5067275;28;20200;-68
2021/09/19 12:02:26;;;;;;;2.63;1.87;;;22.10;90.10;22.30;96453.00;;;;5081973;28;20227;-67
2021/09/19 12:05:15;;;;;;;2.60;2.20;;;22.10;91.00;22.40;96451.00;;;;5079207;28;20676;-67
2021/09/19 12:08:04;;;;;;;3.00;2.50;;;22.10;91.50;22.60;96449.00;;;;5070286;28;20200;-69
2021/09/19 12:10:54;;;;;;;2.27;2.07;;;22.80;92.20;22.50;96448.00;;;;5082275;28;20219;-66
2021/09/19 12:13:50;;;;;;;7.67;2.27;;;22.10;92.00;22.40;96422.00;;;;5076463;28;20211;-67
2021/09/19 12:16:39;;;;;;;2.33;2.17;;;22.10;91.60;23.80;96440.00;;;;5070231;28;20208;-65
2021/09/19 12:19:29;;;;;;;3.33;2.30;;;22.50;92.50;24.20;96436.00;;;;5073783;28;20203;-71
2021/09/19 12:22:22;;;;;;;2.33;2.07;;;22.80;92.40;24.00;96449.00;;;;5082235;28;20223;-67
2021/09/19 12:25:11;;;;;;;2.30;2.10;;;23.10;91.80;24.10;96446.00;;;;5085521;28;20196;-67
2021/09/19 12:28:00;;;;;;;3.00;2.30;;;23.20;91.30;23.80;96442.00;;;;5086753;28;20207;-67
2021/09/19 12:30:50;;;;;;;3.03;2.07;;;23.30;90.70;23.70;96444.00;;;;5078051;28;20659;-67
2021/09/19 12:33:54;;;;;;;2.77;2.57;;;23.30;90.50;22.90;96440.00;;;;5072397;28;20211;-67
2021/09/19 12:36:45;;;;;;;3.00;2.10;;;23.00;89.60;22.90;96419.00;;;;5068111;28;20207;-67
2021/09/19 12:39:34;;;;;;;2.60;2.40;;;22.80;90.00;23.30;96419.00;;;;5083740;28;20195;-68
2021/09/19 12:42:23;;;;;;;2.47;2.20;;;22.80;90.30;24.10;96420.00;;;;5084452;28;20709;-68
2021/09/19 12:45:15;;;;;;;3.87;1.90;;;23.00;90.60;24.10;96414.00;;;;5084352;28;20203;-68